createdAt,value
2023-01-07T00:00:01.952Z,5.50
2023-01-07T00:02:39.166Z,4.10
2023-01-07T00:05:06.578Z,4.20
2023-01-07T00:07:34.745Z,4.70
2023-01-07T00:10:01.819Z,6.60
2023-01-07T00:12:30.059Z,4.10
2023-01-07T00:14:57.407Z,4.50
2023-01-07T00:17:24.895Z,3.20
2023-01-07T00:19:52.152Z,5.00
2023-01-07T00:22:19.039Z,4.70
2023-01-07T00:24:46.108Z,4.70
2023-01-07T00:27:13.115Z,4.60
2023-01-07T00:29:40.149Z,3.60
2023-01-07T00:32:07.685Z,3.50
2023-01-07T00:34:35.378Z,6.20
2023-01-07T00:37:34.815Z,4.20
2023-01-07T00:40:01.724Z,2.40
2023-01-07T00:42:47.658Z,6.10
2023-01-07T00:45:14.728Z,6.10
2023-01-07T00:47:41.690Z,4.70
2023-01-07T00:50:09.636Z,4.40
2023-01-07T00:52:37.116Z,6.50
2023-01-07T00:55:04.737Z,4.10
2023-01-07T00:57:33.411Z,4.30
2023-01-07T01:00:00.806Z,5.70
2023-01-07T01:02:27.876Z,4.60
2023-01-07T01:04:54.837Z,4.80
2023-01-07T01:07:21.859Z,7.10
2023-01-07T01:09:49.449Z,8.80
2023-01-07T01:12:16.428Z,6.50
2023-01-07T01:14:43.482Z,4.90
2023-01-07T01:17:10.494Z,7.50
2023-01-07T01:19:37.644Z,5.60
2023-01-07T01:22:04.675Z,2.80
2023-01-07T01:24:31.480Z,4.00
2023-01-07T01:26:58.822Z,5.20
2023-01-07T01:29:25.771Z,6.80
2023-01-07T01:31:52.953Z,5.00
2023-01-07T01:34:20.427Z,3.60
2023-01-07T01:36:47.247Z,4.10
2023-01-07T01:39:14.406Z,5.00
2023-01-07T01:41:41.732Z,4.60
2023-01-07T01:44:46.876Z,5.30
2023-01-07T01:47:37.749Z,5.70
2023-01-07T01:50:38.596Z,4.90
2023-01-07T01:53:12.100Z,6.20
2023-01-07T01:55:45.561Z,7.80
2023-01-07T01:58:18.411Z,4.40
2023-01-07T02:00:45.449Z,5.90
2023-01-07T02:03:18.527Z,6.60
2023-01-07T02:05:46.901Z,6.00
2023-01-07T02:08:22.124Z,6.50
2023-01-07T02:11:00.891Z,5.50
2023-01-07T02:13:51.056Z,6.80
2023-01-07T02:16:27.137Z,6.00
2023-01-07T02:19:00.133Z,6.30
2023-01-07T02:21:58.190Z,6.20
2023-01-07T02:24:44.524Z,6.60
2023-01-07T02:27:11.686Z,8.70
2023-01-07T02:30:16.935Z,9.80
2023-01-07T02:33:08.927Z,4.90
2023-01-07T02:35:54.253Z,6.60
2023-01-07T02:38:46.159Z,5.10
2023-01-07T02:41:23.286Z,5.30
2023-01-07T02:43:54.743Z,7.50
2023-01-07T02:46:28.323Z,6.20
2023-01-07T02:48:59.199Z,6.10
2023-01-07T02:51:34.195Z,14.80
2023-01-07T02:54:01.403Z,13.00
2023-01-07T02:56:59.226Z,12.30
2023-01-07T02:59:44.993Z,9.50
2023-01-07T03:02:44.918Z,7.70
2023-01-07T03:05:21.692Z,10.80
2023-01-07T03:08:15.874Z,8.00
2023-01-07T03:10:48.056Z,5.40
2023-01-07T03:13:20.978Z,8.70
2023-01-07T03:16:00.622Z,8.40
2023-01-07T03:18:32.348Z,6.50
2023-01-07T03:21:02.663Z,4.70
2023-01-07T03:23:30.372Z,10.50
2023-01-07T03:25:59.854Z,13.10
2023-01-07T03:28:29.141Z,9.50
2023-01-07T03:30:56.884Z,9.60
2023-01-07T03:33:46.815Z,9.50
2023-01-07T03:36:14.344Z,8.90
2023-01-07T03:38:43.185Z,5.40
2023-01-07T03:41:32.187Z,6.70
2023-01-07T03:43:59.487Z,5.80
2023-01-07T03:46:26.661Z,3.10
2023-01-07T03:48:55.216Z,5.70
2023-01-07T03:51:23.297Z,4.90
2023-01-07T03:53:50.252Z,7.60
2023-01-07T03:56:17.463Z,7.60
2023-01-07T03:58:44.556Z,8.50
2023-01-07T04:01:11.600Z,7.40
2023-01-07T04:03:39.506Z,5.10
2023-01-07T04:06:06.582Z,5.90
2023-01-07T04:08:33.409Z,5.70
2023-01-07T04:11:00.653Z,6.00
2023-01-07T04:13:27.752Z,6.30
2023-01-07T04:15:55.044Z,4.80
2023-01-07T04:18:22.546Z,6.60
2023-01-07T04:20:49.815Z,6.90
2023-01-07T04:23:17.321Z,6.10
2023-01-07T04:25:49.212Z,7.10
2023-01-07T04:28:19.523Z,1.50
2023-01-07T04:30:46.421Z,5.40
2023-01-07T04:33:14.771Z,3.50
2023-01-07T04:35:42.030Z,4.30
2023-01-07T04:38:09.236Z,3.70
2023-01-07T04:40:36.431Z,5.20
2023-01-07T04:43:04.195Z,6.20
2023-01-07T04:45:31.545Z,6.50
2023-01-07T04:47:59.713Z,5.40
2023-01-07T04:50:27.612Z,5.70
2023-01-07T04:52:54.795Z,4.80
2023-01-07T04:55:22.981Z,5.30
2023-01-07T04:57:50.370Z,5.60
2023-01-07T05:00:17.830Z,6.00
2023-01-07T05:02:46.047Z,6.20
2023-01-07T05:05:13.071Z,8.30
2023-01-07T05:07:41.141Z,7.20
2023-01-07T05:10:09.312Z,6.50
2023-01-07T05:12:36.719Z,5.30
2023-01-07T05:15:05.417Z,4.70
2023-01-07T05:17:33.171Z,9.20
2023-01-07T05:20:01.827Z,5.90
2023-01-07T05:22:29.839Z,7.80
2023-01-07T05:24:57.215Z,8.00
2023-01-07T05:27:25.963Z,5.80
2023-01-07T05:29:53.225Z,9.10
2023-01-07T05:32:20.446Z,5.20
2023-01-07T05:34:48.350Z,3.50
2023-01-07T05:37:15.435Z,3.10
2023-01-07T05:39:42.999Z,5.80
2023-01-07T05:42:10.246Z,6.10
2023-01-07T05:44:37.320Z,7.40
2023-01-07T05:47:04.455Z,6.00
2023-01-07T05:49:33.547Z,4.90
2023-01-07T05:52:00.415Z,8.50
2023-01-07T05:54:27.395Z,10.70
2023-01-07T05:56:54.328Z,13.70
2023-01-07T05:59:21.679Z,9.40
2023-01-07T06:01:48.640Z,9.50
2023-01-07T06:04:15.762Z,7.30
2023-01-07T06:06:42.639Z,9.70
2023-01-07T06:09:10.901Z,11.20
2023-01-07T06:11:38.615Z,9.60
2023-01-07T06:14:05.460Z,9.90
2023-01-07T06:16:32.943Z,10.00
2023-01-07T06:19:00.440Z,6.90
2023-01-07T06:21:27.454Z,9.80
2023-01-07T06:23:56.104Z,8.80
2023-01-07T06:26:23.220Z,8.70
2023-01-07T06:28:51.904Z,11.10
2023-01-07T06:31:22.236Z,11.90
2023-01-07T06:33:49.325Z,10.20
2023-01-07T06:36:16.663Z,8.10
2023-01-07T06:38:46.392Z,8.00
2023-01-07T06:41:13.876Z,8.10
2023-01-07T06:43:40.662Z,10.70
2023-01-07T06:46:07.836Z,8.10
2023-01-07T06:48:35.119Z,9.20
2023-01-07T06:51:03.021Z,9.90
2023-01-07T06:53:30.008Z,7.90
2023-01-07T06:55:56.953Z,8.60
2023-01-07T06:58:23.999Z,9.60
2023-01-07T07:00:51.079Z,10.70
2023-01-07T07:03:20.358Z,14.00
2023-01-07T07:05:47.808Z,14.20
2023-01-07T07:08:14.895Z,11.30
2023-01-07T07:10:42.519Z,9.60
2023-01-07T07:13:09.556Z,12.50
2023-01-07T07:15:36.711Z,10.80
2023-01-07T07:18:04.054Z,9.80
2023-01-07T07:20:31.137Z,8.80
2023-01-07T07:22:58.572Z,12.20
2023-01-07T07:25:27.278Z,9.90
2023-01-07T07:27:54.559Z,10.10
2023-01-07T07:30:21.535Z,9.50
2023-01-07T07:33:08.717Z,5.80
2023-01-07T07:35:36.563Z,8.90
2023-01-07T07:38:03.464Z,11.80
2023-01-07T07:40:35.678Z,13.30
2023-01-07T07:43:11.325Z,14.10
2023-01-07T07:45:40.889Z,11.60
2023-01-07T07:48:09.271Z,10.00
2023-01-07T07:50:36.270Z,10.00
2023-01-07T07:53:03.869Z,9.10
2023-01-07T07:55:31.357Z,10.70
2023-01-07T07:57:58.857Z,10.60
2023-01-07T08:00:25.828Z,13.10
2023-01-07T08:02:52.846Z,10.40
2023-01-07T08:05:19.788Z,8.60
2023-01-07T08:07:47.244Z,11.40
2023-01-07T08:10:14.527Z,10.90
2023-01-07T08:12:41.999Z,13.10
2023-01-07T08:15:12.528Z,12.60
2023-01-07T08:17:39.871Z,9.30
2023-01-07T08:20:07.827Z,16.50
2023-01-07T08:22:35.325Z,16.00
2023-01-07T08:25:02.656Z,12.60
2023-01-07T08:27:29.801Z,13.70
2023-01-07T08:29:56.781Z,16.80
2023-01-07T08:32:23.765Z,14.20
2023-01-07T08:34:50.632Z,14.70
2023-01-07T08:37:17.530Z,10.50
2023-01-07T08:39:44.438Z,15.30
2023-01-07T08:42:11.518Z,16.10
2023-01-07T08:44:38.676Z,24.10
2023-01-07T08:47:07.567Z,16.40
2023-01-07T08:49:35.391Z,11.70
2023-01-07T08:59:41.145Z,11.40
2023-01-07T09:02:15.026Z,11.80
2023-01-07T09:04:42.035Z,14.90
2023-01-07T09:07:09.552Z,11.60
2023-01-07T09:09:38.985Z,15.10
2023-01-07T09:12:07.464Z,11.90
2023-01-07T09:14:37.114Z,13.20
2023-01-07T09:17:04.375Z,13.20
2023-01-07T09:19:31.641Z,13.70
2023-01-07T09:21:59.113Z,14.50
2023-01-07T09:24:26.247Z,13.60
2023-01-07T09:26:53.328Z,12.00
2023-01-07T09:29:20.354Z,12.50
2023-01-07T09:31:47.313Z,16.60
2023-01-07T09:34:14.674Z,12.60
2023-01-07T09:36:41.812Z,12.80
2023-01-07T09:39:10.971Z,11.80
2023-01-07T09:41:48.750Z,16.50
2023-01-07T09:44:42.715Z,11.10
2023-01-07T09:47:09.719Z,11.30
2023-01-07T09:49:36.750Z,14.20
2023-01-07T09:52:32.893Z,12.20
2023-01-07T09:55:03.496Z,12.40
2023-01-07T09:57:30.347Z,10.50
2023-01-07T09:59:57.796Z,19.50
2023-01-07T10:03:03.009Z,9.50
2023-01-07T10:05:36.258Z,10.60
2023-01-07T10:08:30.923Z,17.70
2023-01-07T12:23:35.483Z,19.30
2023-01-07T12:26:13.925Z,13.90
2023-01-07T12:28:44.063Z,17.80
2023-01-07T12:31:29.813Z,27.60
2023-01-07T12:34:01.020Z,17.20
2023-01-07T12:36:30.551Z,18.70
2023-01-07T12:38:58.763Z,22.70
2023-01-07T12:41:27.658Z,22.00
2023-01-07T12:44:04.697Z,18.70
2023-01-07T12:46:37.752Z,26.20
2023-01-07T12:49:15.100Z,26.30
2023-01-07T12:52:05.265Z,19.20
2023-01-07T12:54:47.810Z,23.70
2023-01-07T12:57:37.152Z,20.70
2023-01-07T13:00:22.710Z,17.60
2023-01-07T13:03:00.700Z,16.60
2023-01-07T13:05:32.492Z,14.90
2023-01-07T13:08:04.392Z,16.50
2023-01-07T13:10:46.130Z,16.50
2023-01-07T13:13:21.678Z,14.70
2023-01-07T13:15:48.822Z,16.40
2023-01-07T13:18:17.199Z,16.30
2023-01-07T13:21:12.895Z,18.90
2023-01-07T13:24:21.272Z,18.60
2023-01-07T13:27:24.441Z,11.90
2023-01-07T13:29:58.707Z,13.40
2023-01-07T13:32:31.450Z,20.50
2023-01-07T13:35:20.356Z,18.00
2023-01-07T13:38:01.342Z,20.40
2023-01-07T13:40:49.139Z,16.00
2023-01-07T13:43:22.846Z,16.10
2023-01-07T13:45:55.656Z,18.90
2023-01-07T13:48:23.554Z,17.60
2023-01-07T13:51:00.476Z,15.80
2023-01-07T13:53:27.568Z,20.90
2023-01-07T13:55:55.242Z,23.30
2023-01-07T13:58:29.402Z,20.50
2023-01-07T14:01:18.264Z,16.40
2023-01-07T14:03:45.555Z,15.90
2023-01-07T14:06:18.794Z,17.80
2023-01-07T14:08:58.928Z,18.10
2023-01-07T14:11:44.438Z,14.60
2023-01-07T14:14:25.016Z,15.30
2023-01-07T14:16:54.891Z,16.40
2023-01-07T14:19:40.391Z,17.30
2023-01-07T14:22:41.607Z,17.90
2023-01-07T14:25:19.454Z,13.30
2023-01-07T14:27:56.903Z,13.10
2023-01-07T14:30:31.437Z,18.60
2023-01-07T14:33:03.986Z,20.70
2023-01-07T14:35:39.680Z,16.40
2023-01-07T14:38:42.445Z,18.10
2023-01-07T14:41:11.018Z,24.30
2023-01-07T14:43:41.173Z,19.30
2023-01-07T14:46:08.749Z,17.40
2023-01-07T14:48:37.225Z,19.70
2023-01-07T14:51:25.939Z,17.10
2023-01-07T14:54:12.194Z,17.90
2023-01-07T14:57:01.146Z,13.20
2023-01-07T14:59:47.226Z,16.60
2023-01-07T15:05:11.280Z,16.40
2023-01-07T15:07:38.791Z,15.70
2023-01-07T15:10:42.641Z,16.30
2023-01-07T15:13:33.237Z,16.00
2023-01-07T15:16:03.131Z,10.30
2023-01-07T15:18:49.961Z,12.30
2023-01-07T15:21:30.434Z,13.80
2023-01-07T15:24:16.722Z,9.50
2023-01-07T15:26:54.513Z,15.00
2023-01-07T15:29:31.946Z,18.00
2023-01-07T15:34:40.573Z,36.00
2023-01-07T15:37:07.655Z,26.60
2023-01-07T15:39:42.252Z,20.10
2023-01-07T15:42:20.627Z,14.10
2023-01-07T15:44:57.553Z,13.00
2023-01-07T15:47:33.412Z,16.80
2023-01-07T15:50:19.990Z,14.90
2023-01-07T15:55:32.548Z,15.80
2023-01-07T15:58:22.145Z,12.70
2023-01-07T16:00:51.351Z,21.80
2023-01-07T16:03:18.789Z,18.90
2023-01-07T16:05:46.068Z,19.10
2023-01-07T16:08:21.302Z,15.10
2023-01-07T16:11:03.397Z,20.60
2023-01-07T16:13:31.111Z,17.50
2023-01-07T16:16:03.709Z,22.30
2023-01-07T16:18:34.295Z,18.70
2023-01-07T16:21:02.944Z,20.30
2023-01-07T16:23:34.378Z,13.60
2023-01-07T16:26:07.086Z,19.00
2023-01-07T16:28:38.362Z,12.70
2023-01-07T16:31:07.866Z,18.40
2023-01-07T16:33:35.420Z,23.30
2023-01-07T16:36:21.145Z,29.40
2023-01-07T16:38:50.386Z,33.00
2023-01-07T16:41:21.602Z,31.20
2023-01-07T16:43:48.894Z,30.80
2023-01-07T16:46:25.928Z,28.60
2023-01-07T16:49:11.539Z,21.10
2023-01-07T16:51:44.393Z,18.80
2023-01-07T16:54:21.042Z,14.80
2023-01-07T16:56:52.945Z,16.90
2023-01-07T16:59:20.615Z,21.00
2023-01-07T17:01:50.547Z,24.80
2023-01-07T17:04:19.992Z,30.10
2023-01-07T17:06:47.955Z,22.50
2023-01-07T17:09:31.931Z,23.80
2023-01-07T17:11:59.259Z,22.50
2023-01-07T17:14:38.435Z,21.70
2023-01-07T17:17:32.503Z,23.20
2023-01-07T17:20:09.785Z,13.90
2023-01-07T17:22:40.509Z,13.30
2023-01-07T17:25:21.818Z,13.60
2023-01-07T17:27:58.470Z,23.00
2023-01-07T17:32:53.276Z,25.90
2023-01-07T17:35:21.825Z,21.30
2023-01-07T17:37:50.963Z,20.70
2023-01-07T17:40:19.122Z,20.60
2023-01-07T17:43:06.401Z,20.00
2023-01-07T17:45:34.351Z,18.00
2023-01-07T17:48:01.701Z,17.70
2023-01-07T17:50:35.137Z,17.20
2023-01-07T17:53:02.410Z,27.80
2023-01-07T17:55:30.661Z,42.60
2023-01-07T17:57:57.945Z,35.70
2023-01-07T18:00:26.730Z,45.10
2023-01-07T18:02:53.646Z,32.50
2023-01-07T18:05:25.630Z,32.60
2023-01-07T18:07:53.288Z,30.50
2023-01-07T18:10:26.765Z,36.20
2023-01-07T18:12:55.083Z,34.20
2023-01-07T18:15:26.092Z,51.70
2023-01-07T18:17:53.216Z,78.00
2023-01-07T18:20:21.610Z,64.30
2023-01-07T18:22:49.103Z,89.80
2023-01-07T20:23:47.077Z,39.30
2023-01-07T20:26:16.485Z,30.10
2023-01-07T20:28:43.693Z,28.60
2023-01-07T20:31:13.804Z,15.90
2023-01-07T20:33:41.028Z,18.40
2023-01-07T20:36:12.341Z,25.10
2023-01-07T20:38:40.023Z,42.80
2023-01-07T20:41:08.589Z,37.70
2023-01-07T20:43:36.356Z,32.70
2023-01-07T20:46:05.723Z,25.00
2023-01-07T20:48:33.476Z,23.50
2023-01-07T20:51:05.091Z,16.10
2023-01-07T20:53:32.041Z,23.50
2023-01-07T20:55:59.967Z,13.40
2023-01-07T20:58:30.684Z,10.20
2023-01-07T21:00:58.209Z,20.00
2023-01-07T21:03:25.783Z,20.80
2023-01-07T21:05:57.158Z,24.10
2023-01-07T21:08:24.433Z,22.50
2023-01-07T21:10:51.988Z,15.20
2023-01-07T21:13:20.042Z,14.70
2023-01-07T21:15:48.770Z,14.20
2023-01-07T21:18:15.737Z,20.60
2023-01-07T21:20:43.339Z,13.60
2023-01-07T21:23:10.968Z,17.50
2023-01-07T21:25:39.536Z,15.90
2023-01-07T21:28:07.132Z,20.20
2023-01-07T21:30:34.323Z,23.70
2023-01-07T21:33:01.843Z,19.50
2023-01-07T21:35:31.337Z,17.30
2023-01-07T21:37:58.594Z,14.00
2023-01-07T21:40:25.642Z,19.40
2023-01-07T21:42:52.520Z,28.40
2023-01-07T21:45:20.761Z,18.10
2023-01-07T21:47:47.595Z,12.90
2023-01-07T21:50:16.664Z,9.50
2023-01-07T21:52:43.530Z,11.20
2023-01-07T21:55:10.641Z,9.90
2023-01-07T21:57:37.726Z,13.20
2023-01-07T22:00:05.895Z,19.40
2023-01-07T22:02:39.091Z,14.20
2023-01-07T22:05:06.866Z,17.60
2023-01-07T22:07:35.508Z,15.60
2023-01-07T22:10:02.664Z,17.60
2023-01-07T22:12:29.760Z,18.20
2023-01-07T22:14:57.631Z,18.60
2023-01-07T22:17:25.265Z,16.90
2023-01-07T22:19:52.840Z,27.50
2023-01-07T22:22:21.029Z,20.10
2023-01-07T22:24:48.826Z,15.30
2023-01-07T22:27:16.001Z,10.80
2023-01-07T22:29:44.057Z,11.50
2023-01-07T22:32:11.666Z,11.80
2023-01-07T22:34:39.151Z,13.90
2023-01-07T22:37:10.268Z,14.00
2023-01-07T22:39:39.434Z,16.70
2023-01-07T22:42:20.438Z,15.30
2023-01-07T22:44:53.220Z,12.60
2023-01-07T22:47:23.487Z,12.10
2023-01-07T22:49:50.411Z,13.20
2023-01-07T22:52:17.358Z,11.70
2023-01-07T22:54:44.382Z,10.00
2023-01-07T22:57:11.562Z,14.00
2023-01-07T22:59:38.494Z,11.90
2023-01-07T23:02:06.181Z,11.50
2023-01-07T23:04:34.507Z,7.60
2023-01-07T23:07:01.846Z,13.40
2023-01-07T23:09:28.911Z,14.90
2023-01-07T23:11:59.617Z,18.10
2023-01-07T23:14:27.386Z,20.80
2023-01-07T23:16:54.413Z,17.80
2023-01-07T23:19:21.666Z,10.00
2023-01-07T23:21:51.146Z,11.00
2023-01-07T23:24:18.319Z,15.50
2023-01-07T23:26:46.922Z,12.90
2023-01-07T23:29:14.065Z,11.90
2023-01-07T23:31:41.143Z,17.00
2023-01-07T23:34:08.149Z,13.70
2023-01-07T23:36:36.845Z,10.60
2023-01-07T23:39:04.348Z,13.20
2023-01-07T23:41:31.664Z,15.70
2023-01-07T23:43:58.525Z,11.20
2023-01-07T23:46:25.610Z,8.00
2023-01-07T23:48:52.431Z,12.40
2023-01-07T23:51:20.460Z,13.70
2023-01-07T23:53:47.578Z,11.70
2023-01-07T23:56:18.031Z,11.30
2023-01-07T23:58:44.955Z,14.70
